This is the latest recevied weather packets stored in our database for station/object KI4NG. If no packets are shown the sender has not sent any weather packets the latest 10 day(s).
| Time | Temp. | Humidity | Pressure | Rain* | Wind** | Luminosity | Snow |
|---|---|---|---|---|---|---|---|
| 1777833452 | 15° C | 46% | 1020 hPa | 0 mm | - | 717 W/m² | - |
| 1777833149 | 15.56° C | 51% | 1020.1 hPa | 0 mm | - | 718 W/m² | - |
| 1777832847 | 15° C | 45% | 1020.2 hPa | 0 mm | - | 725 W/m² | - |
| 1777832546 | 15° C | 48% | 1020.4 hPa | 0 mm | - | 724 W/m² | - |
| 1777832242 | 15° C | 47% | 1020.6 hPa | 0 mm | - | 718 W/m² | - |
| 1777831939 | 15° C | 49% | 1020.2 hPa | 0 mm | - | 732 W/m² | - |
| 1777831635 | 15° C | 48% | 1020.6 hPa | 0 mm | - | 743 W/m² | - |
| 1777831334 | 14.44° C | 49% | 1020.6 hPa | 0 mm | - | 745 W/m² | - |
| 1777831030 | 15° C | 49% | 1020.2 hPa | 0 mm | - | 746 W/m² | - |
| 1777830728 | 13.89° C | 50% | 1020.7 hPa | 0 mm | - | 747 W/m² | - |
| 1777830424 | 13.89° C | 50% | 1020.7 hPa | 0 mm | - | 753 W/m² | - |
| 1777830122 | 13.89° C | 49% | 1020.8 hPa | 0 mm | - | 761 W/m² | - |
| 1777829817 | 14.44° C | 47% | 1020.6 hPa | 0 mm | - | 740 W/m² | - |
| 1777829513 | 13.33° C | 49% | 1020.9 hPa | 0 mm | - | 720 W/m² | - |
| 1777829210 | 13.89° C | 51% | 1020.8 hPa | 0 mm | - | 731 W/m² | - |
| 1777828907 | 13.89° C | 49% | 1020.9 hPa | 0 mm | - | 757 W/m² | - |
| 1777828604 | 13.33° C | 49% | 1021.1 hPa | 0 mm | - | 759 W/m² | - |
| 1777828301 | 13.33° C | 53% | 1021.1 hPa | 0 mm | - | 754 W/m² | - |
| 1777827998 | 13.33° C | 47% | 1021.2 hPa | 0 mm | - | 763 W/m² | - |
| 1777827695 | 12.78° C | 58% | 1021.3 hPa | 0 mm | - | 768 W/m² | - |
| 1777827392 | 13.33° C | 52% | 1021.3 hPa | 0 mm | - | 768 W/m² | - |
| 1777827088 | 12.78° C | 55% | 1021.3 hPa | 0 mm | - | 744 W/m² | - |
| 1777826785 | 12.78° C | 52% | 1021.2 hPa | 0 mm | - | 761 W/m² | - |
| 1777826482 | 12.78° C | 51% | 1021.4 hPa | 0 mm | - | 772 W/m² | - |
| 1777826178 | 12.78° C | 50% | 1021.4 hPa | 0 mm | - | 793 W/m² | - |
* Rain latest hour (hover to see other rain measurements)
** Current wind speed in m/s (hover to see current wind gust speed)